Startpagina
METAR-TAF:

METAR-TAF

Vliegvelden :

Vliegbasis Koksijde

Koksijde, België

breedte: 51-05N, lengte: 002-39E, hoogte: 4 m

Actueel weer

Dit bericht is 27 minuten geleden gemaakt, om 00:55 UTC
Wind 6 kt uit het oostnoordoosten
Temperatuur 1°C
Vochtigheid 86%
Druk 1028 hPa
Zicht: 6000 m

METAR: EBFN 180055Z AUTO 06006KT 6000 NCD 01/M01 Q1028 WHT

Tijdstip: 02:22 (01:22 UTC)

Verwachting

Dit bericht is 9 uur en het 41 minuten geleden gemaakt, om 15:41 UTC
Verwachting geldig van 17 om 19 UTC tot 18 om 07 UTC
Wind 7 kt uit het oosten
Zicht: 8000 m
Onbewolkt
Tijdelijke
van 17 om 19 UTC tot 18 om 07 UTC
Zicht: 5000 m
nevel
Tijdelijke
van 17 om 02 UTC tot 18 om 07 UTC
Zicht: 3000 m
nevel

TAF: EBFN 171541Z 1719/1807 09007KT 8000 SKC TEMPO 1719/1807 5000 BR TEMPO 1702/1807 3000 BR

Waarnemingen en weersverwachtingen van meer dan 4000 vliegvelden (METAR en TAF).

De beschikbare stations zijn de gele en rode punten op de kaart.

Ga met uw muis naar het station om de naam te zien.

Klik dan om waarnemingen en weersverwachtingen te zien.

kaart wijzigen: klik op de groene knoppen met een zwart kruis om in te zoomen, op de groene knop met een streepje om uit te zoomen of op de groene pijlen voor aangrenzende kaarten.


METAR-TAF: